Gillette Campbell County Airport Gillette US
ICAO: KGCC
IATA: GCC
Category: Medium
Scheduled Services: Yes

Elevation: 4365 ft
TransAlt. 18000 ft.

Airport Communications:
ASOS:124.175
DENVER CNTR:135.6
CTAF:118.5
GND:121.7
CASPER RDO:122.3
TWR:118.5
UNICOM:122.95

KGCC Zoom In..

If you have problems with the map follow the link
https://www.worldairports.se/pages/airport.php?
ICAO=KGCC

Runways:

(A) RW 03 length 5803 ft width 75 ft
---- / hdg 26

(B) RW 16 length 7501 ft width 150 ft
---- / hdg 158

(C) RW 21 length 5803 ft width 75 ft
---- / hdg 206

(D) RW 34 length 7501 ft width 150 ft
ILS 110.10 / hdg 338

Location; KGCC
Day. 19 / Time. 13.53 Zulu
* Altimeter: 30.15
* Temperature: 01° c. 33.8°f.
* Wind from: 290° Speed 10 kn.
Dewpoint: -01° c.
Visibility: 9 Statute Miles.
Clouds: Overcast 1800 ft.

KGCC 191353Z AUTO 29010KT 9SM OVC018 01/M01 A3015 RMK AO2 SNB42E51 SLP235 P0000 T00061006


Wind From 290°
Speed 10 kn.

 
 
jpsmedia.com for Web Design worldairports.se 2018   terms of use